createdAt,value
2023-03-29T00:00:25.092Z,0
2023-03-29T00:05:25.100Z,0
2023-03-29T00:10:25.099Z,0
2023-03-29T00:15:25.097Z,0
2023-03-29T00:20:25.093Z,0
2023-03-29T00:25:25.086Z,4.2
2023-03-29T00:30:25.103Z,7
2023-03-29T00:35:25.098Z,7.6
2023-03-29T00:40:25.107Z,9.4
2023-03-29T00:45:25.099Z,9
2023-03-29T00:50:25.100Z,7.7
2023-03-29T00:55:25.095Z,6.6
2023-03-29T01:00:25.105Z,0
2023-03-29T01:05:25.094Z,0
2023-03-29T01:10:25.105Z,0
2023-03-29T01:15:25.107Z,0
2023-03-29T01:20:25.121Z,0
2023-03-29T01:25:25.118Z,0
2023-03-29T01:30:25.125Z,0
2023-03-29T01:35:25.111Z,0
2023-03-29T01:40:25.126Z,0
2023-03-29T01:45:25.111Z,0
2023-03-29T01:50:25.099Z,0
2023-03-29T01:55:25.098Z,0
2023-03-29T02:00:25.096Z,5.4
2023-03-29T02:05:25.090Z,5.4
2023-03-29T02:10:25.096Z,0
2023-03-29T02:15:25.101Z,0
2023-03-29T02:20:25.100Z,0
2023-03-29T02:25:25.086Z,0
2023-03-29T02:30:25.101Z,4.6
2023-03-29T02:35:25.095Z,0
2023-03-29T02:40:25.107Z,0
2023-03-29T02:45:25.095Z,0
2023-03-29T02:50:25.105Z,0
2023-03-29T02:55:25.094Z,0
2023-03-29T03:00:25.090Z,0
2023-03-29T03:05:25.094Z,7.4
2023-03-29T03:10:25.092Z,8.2
2023-03-29T03:15:25.095Z,7.3
2023-03-29T03:20:25.102Z,7
2023-03-29T03:25:25.089Z,5.9
2023-03-29T03:30:25.093Z,5.5
2023-03-29T03:35:25.151Z,0
2023-03-29T03:40:26.075Z,0
2023-03-29T03:45:25.092Z,4.5
2023-03-29T03:50:25.091Z,5.4
2023-03-29T03:55:25.091Z,7.7
2023-03-29T04:00:25.093Z,8.8
2023-03-29T04:05:25.081Z,8.5
2023-03-29T04:10:25.093Z,7.8
2023-03-29T04:15:25.087Z,7.7
2023-03-29T04:20:25.087Z,9
2023-03-29T04:25:25.089Z,10.4
2023-03-29T04:30:25.090Z,9.8
2023-03-29T04:35:25.093Z,10.1
2023-03-29T04:40:25.096Z,11.2
2023-03-29T04:45:25.109Z,8.4
2023-03-29T04:50:25.100Z,7.9
2023-03-29T04:55:25.097Z,9.7
2023-03-29T05:00:25.091Z,9.7
2023-03-29T05:05:25.098Z,7.9
2023-03-29T05:10:25.106Z,8.2
2023-03-29T05:15:25.106Z,9
2023-03-29T05:20:25.098Z,9.5
2023-03-29T05:25:25.090Z,10.5
2023-03-29T05:30:25.093Z,7.6
2023-03-29T05:35:25.091Z,7.4
2023-03-29T05:40:25.095Z,7
2023-03-29T05:45:25.096Z,6.9
2023-03-29T05:50:25.090Z,6.2
2023-03-29T05:55:25.081Z,0
2023-03-29T06:00:25.117Z,0
2023-03-29T06:05:25.097Z,4.3
2023-03-29T06:10:25.085Z,4.9
2023-03-29T06:15:25.102Z,0
2023-03-29T06:20:25.100Z,0
2023-03-29T06:25:25.093Z,6.2
2023-03-29T06:30:25.108Z,6
2023-03-29T06:35:25.096Z,6.4
2023-03-29T06:40:25.097Z,8.6
2023-03-29T06:45:26.289Z,9.4
2023-03-29T06:50:25.114Z,12.5
2023-03-29T06:55:25.105Z,12.9
2023-03-29T07:00:25.096Z,13.8
2023-03-29T07:05:25.105Z,14
2023-03-29T07:10:25.100Z,11.8
2023-03-29T07:15:25.094Z,12.1
2023-03-29T07:20:25.121Z,15.5
2023-03-29T07:25:25.088Z,15.3
2023-03-29T07:30:25.107Z,14.6
2023-03-29T07:35:25.088Z,14.7
2023-03-29T07:40:25.183Z,13.6
2023-03-29T07:45:26.335Z,15.6
2023-03-29T07:50:25.093Z,15.8
2023-03-29T07:55:25.095Z,15.5
2023-03-29T08:00:25.344Z,14.2
2023-03-29T08:10:25.101Z,13.9
2023-03-29T08:15:25.096Z,15.8
2023-03-29T08:20:25.111Z,16.8
2023-03-29T08:25:25.103Z,14.3
2023-03-29T08:30:25.100Z,12
2023-03-29T08:35:25.102Z,13.2
2023-03-29T08:40:25.113Z,14.1
2023-03-29T08:45:25.092Z,21.4
2023-03-29T08:50:25.092Z,21.4
2023-03-29T08:55:25.096Z,19.4
2023-03-29T09:00:25.087Z,18.4
2023-03-29T09:05:25.115Z,19.9
2023-03-29T09:10:25.098Z,18.4
2023-03-29T09:15:25.097Z,16.4
2023-03-29T09:20:25.104Z,18.1
2023-03-29T09:25:25.095Z,20.3
2023-03-29T09:30:25.094Z,21.3
2023-03-29T09:35:25.098Z,24.8
2023-03-29T09:40:25.104Z,22.2
2023-03-29T09:45:25.108Z,23.5
2023-03-29T09:50:31.257Z,23.5
2023-03-29T09:55:25.093Z,20.4
2023-03-29T10:00:25.102Z,17.4
2023-03-29T10:05:25.088Z,28.2
2023-03-29T10:10:25.091Z,25.6
2023-03-29T10:15:29.548Z,19.4
2023-03-29T10:20:25.100Z,24.3
2023-03-29T10:25:25.089Z,19.1
2023-03-29T10:30:25.099Z,23.4
2023-03-29T10:35:25.108Z,25.1
2023-03-29T10:40:25.098Z,20
2023-03-29T10:45:25.100Z,21.9
2023-03-29T10:50:25.096Z,24.2
2023-03-29T10:55:25.099Z,16.7
2023-03-29T11:00:25.104Z,21.5
2023-03-29T11:05:25.118Z,21.8
2023-03-29T11:10:25.099Z,19.2
2023-03-29T11:15:25.088Z,20
2023-03-29T11:20:25.102Z,16.6
2023-03-29T11:25:26.185Z,22.6
2023-03-29T11:30:25.124Z,15.7
2023-03-29T11:35:25.094Z,19.7
2023-03-29T11:40:25.087Z,22
2023-03-29T11:45:25.090Z,23
2023-03-29T11:50:25.100Z,24.6
2023-03-29T11:55:25.091Z,21.2
2023-03-29T12:00:25.090Z,21.5
2023-03-29T12:05:25.089Z,16.7
2023-03-29T12:10:25.094Z,18.3
2023-03-29T12:15:25.083Z,18.3
2023-03-29T12:20:25.090Z,18.2
2023-03-29T12:25:25.089Z,25.8
2023-03-29T12:30:25.094Z,21.8
2023-03-29T12:35:25.102Z,20
2023-03-29T12:40:25.105Z,14.7
2023-03-29T12:45:25.099Z,20.8
2023-03-29T12:50:25.107Z,16.9
2023-03-29T12:55:25.109Z,18.3
2023-03-29T13:00:25.099Z,20.6
2023-03-29T13:05:25.125Z,18
2023-03-29T13:10:25.098Z,20.1
2023-03-29T13:15:25.101Z,27.5
2023-03-29T13:20:25.094Z,26.3
2023-03-29T13:25:25.099Z,24.1
2023-03-29T13:30:25.099Z,21
2023-03-29T13:35:25.089Z,29.8
2023-03-29T13:40:25.106Z,34.7
2023-03-29T13:45:25.100Z,29.7
2023-03-29T13:50:25.094Z,33.2
2023-03-29T13:55:25.093Z,31.5
2023-03-29T14:00:25.104Z,23.4
2023-03-29T14:05:25.088Z,23.2
2023-03-29T14:10:25.106Z,24.5
2023-03-29T14:15:25.088Z,25.2
2023-03-29T14:20:25.086Z,24.3
2023-03-29T14:25:25.101Z,19.9
2023-03-29T14:30:25.094Z,25.9
2023-03-29T14:35:25.101Z,27.8
2023-03-29T14:40:25.109Z,23.6
2023-03-29T14:45:25.089Z,27.6
2023-03-29T14:50:25.116Z,22.3
2023-03-29T14:55:25.148Z,24.9
2023-03-29T15:00:25.092Z,27.1
2023-03-29T15:05:25.597Z,25.8
2023-03-29T15:10:25.113Z,22.8
2023-03-29T15:15:25.153Z,16.3
2023-03-29T15:20:25.113Z,20.2
2023-03-29T15:25:25.103Z,11.9
2023-03-29T15:30:25.106Z,12.6
2023-03-29T15:35:25.114Z,11.3
2023-03-29T15:40:25.096Z,9.7
2023-03-29T15:45:25.092Z,12.6
2023-03-29T15:50:25.109Z,10.2
2023-03-29T15:55:25.101Z,8
2023-03-29T16:00:25.097Z,11.8
2023-03-29T16:05:25.096Z,19.2
2023-03-29T16:10:25.097Z,17.7
2023-03-29T16:15:25.096Z,15.3
2023-03-29T16:20:25.103Z,15.1
2023-03-29T16:25:25.100Z,9.3
2023-03-29T16:30:25.091Z,10.6
2023-03-29T16:35:25.097Z,11
2023-03-29T16:40:25.119Z,11.3
2023-03-29T16:45:25.084Z,11.3
2023-03-29T16:50:25.110Z,11.4
2023-03-29T16:55:25.100Z,9.4
2023-03-29T17:00:25.094Z,8.3
2023-03-29T17:05:25.092Z,8.6
2023-03-29T17:10:25.083Z,7.5
2023-03-29T17:15:25.104Z,8.1
2023-03-29T17:20:25.086Z,6.8
2023-03-29T17:25:25.092Z,8.7
2023-03-29T17:30:25.089Z,12.1
2023-03-29T17:35:25.091Z,12.1
2023-03-29T17:40:25.102Z,14.8
2023-03-29T17:45:25.092Z,20.3
2023-03-29T17:50:25.093Z,20.7
2023-03-29T17:55:25.090Z,19
2023-03-29T18:00:25.107Z,14
2023-03-29T18:05:25.099Z,15.9
2023-03-29T18:10:25.094Z,12.5
2023-03-29T18:15:25.105Z,13
2023-03-29T18:20:25.104Z,13.8
2023-03-29T18:25:25.092Z,13.4
2023-03-29T18:30:25.102Z,12.6
2023-03-29T18:35:25.117Z,11.9
2023-03-29T18:40:25.095Z,15.7
2023-03-29T18:45:25.098Z,17.9
2023-03-29T18:50:25.098Z,14.7
2023-03-29T18:55:25.104Z,16.7
2023-03-29T19:00:25.100Z,14.6
2023-03-29T19:05:25.092Z,13.5
2023-03-29T19:10:25.114Z,14.5
2023-03-29T19:15:25.108Z,13.1
2023-03-29T19:20:25.106Z,13.1
2023-03-29T19:25:25.108Z,13.5
2023-03-29T19:30:25.100Z,14.2
2023-03-29T19:35:25.104Z,14.3
2023-03-29T19:40:25.100Z,13.3
2023-03-29T19:45:25.092Z,13.3
2023-03-29T19:50:25.103Z,11.6
2023-03-29T19:55:25.098Z,11.7
2023-03-29T20:00:25.110Z,11.4
2023-03-29T20:05:25.109Z,13.7
2023-03-29T20:10:25.099Z,14.9
2023-03-29T20:15:25.099Z,14.2
2023-03-29T20:20:25.098Z,14.6
2023-03-29T20:25:25.099Z,13.9
2023-03-29T20:30:25.087Z,15.9
2023-03-29T20:35:25.092Z,15.3
2023-03-29T20:40:25.101Z,15.1
2023-03-29T20:45:25.105Z,13.9
2023-03-29T20:50:25.105Z,12.2
2023-03-29T20:55:25.143Z,11.5
2023-03-29T21:00:25.116Z,11.1
2023-03-29T21:05:25.098Z,10.7
2023-03-29T21:10:25.100Z,10
2023-03-29T21:15:25.093Z,9.3
2023-03-29T21:20:25.097Z,10.3
2023-03-29T21:25:25.087Z,11
2023-03-29T21:30:25.098Z,10.2
2023-03-29T21:35:25.090Z,11
2023-03-29T21:40:25.095Z,9.2
2023-03-29T21:45:25.091Z,9.4
2023-03-29T21:50:25.091Z,11.5
2023-03-29T21:55:25.108Z,11.5
2023-03-29T22:00:25.092Z,10.6
2023-03-29T22:05:25.100Z,10.3
2023-03-29T22:10:25.123Z,10.3
2023-03-29T22:15:25.096Z,9.8
2023-03-29T22:20:25.099Z,9.9
2023-03-29T22:25:25.089Z,10
2023-03-29T22:30:25.103Z,10.8
2023-03-29T22:35:25.101Z,9.6
2023-03-29T22:40:25.100Z,10.3
2023-03-29T22:45:25.096Z,10.4
2023-03-29T22:50:25.095Z,10.1
2023-03-29T22:55:25.095Z,9.1
2023-03-29T23:00:25.106Z,9.5
2023-03-29T23:05:25.094Z,10.5
2023-03-29T23:10:25.098Z,10.6
2023-03-29T23:15:25.891Z,11.2
2023-03-29T23:20:25.093Z,10.9
2023-03-29T23:25:25.084Z,11.2
2023-03-29T23:30:25.101Z,11.1
2023-03-29T23:35:25.115Z,11.1
2023-03-29T23:40:25.101Z,11.5
2023-03-29T23:45:25.135Z,11.1
2023-03-29T23:50:25.114Z,9.4
2023-03-29T23:55:25.111Z,8.4
